Time;durP1;ratioP1;P1;durP2;ratioP2;P2;SDS_P1;SDS_P2;PMS_P1;PMS_P2;Temp;Humidity;BMP_temperature;BMP_pressure;BME280_temperature;BME280_humidity;BME280_pressure;Samples;Min_cycle;Max_cycle;Signal;HPM_P1;HPM_P2
2022/07/02 00:02:26;;;;;;;;;;;29.00;88.20;;;;;;5091382;28;20344;-74
2022/07/02 00:05:02;;;;;;;;;;;28.90;87.90;;;;;;5092181;28;19924;-74
2022/07/02 00:07:30;;;;;;;;;;;28.90;87.70;;;;;;5090925;28;19928;-74
2022/07/02 00:09:58;;;;;;;;;;;28.90;87.40;;;;;;5090725;28;20026;-74
2022/07/02 00:12:26;;;;;;;;;;;28.90;87.20;;;;;;5073481;28;19924;-74
2022/07/02 00:14:55;;;;;;;;;;;29.00;87.30;;;;;;5090455;28;19924;-74
2022/07/02 00:17:22;;;;;;;;;;;29.00;87.20;;;;;;5105347;28;19981;-74
2022/07/02 00:19:50;;;;;;;;;;;28.90;87.30;;;;;;5094540;28;19927;-74
2022/07/02 00:22:18;;;;;;;;;;;28.90;87.30;;;;;;5110563;28;19953;-74
2022/07/02 00:24:46;;;;;;;;;;;28.80;87.10;;;;;;5094223;28;20392;-74
2022/07/02 00:27:16;;;;;;;;;;;28.80;87.30;;;;;;5093270;28;19924;-74
2022/07/02 00:29:44;;;;;;;;;;;28.90;87.30;;;;;;5112040;28;20456;-74
2022/07/02 00:32:11;;;;;;;;;;;28.90;86.90;;;;;;5092727;28;19923;-74
2022/07/02 00:34:39;;;;;;;;;;;28.90;86.80;;;;;;5109852;28;19923;-74
2022/07/02 00:37:09;;;;;;;;;;;28.90;87.00;;;;;;5110167;28;19928;-74
2022/07/02 00:39:37;;;;;;;;;;;28.80;87.00;;;;;;5110743;28;20028;-74
2022/07/02 00:42:05;;;;;;;;;;;28.90;87.40;;;;;;5110599;28;20026;-74
2022/07/02 00:44:32;;;;;;;;;;;28.90;87.40;;;;;;5110152;28;19938;-74
2022/07/02 00:47:04;;;;;;;;;;;29.00;87.30;;;;;;5111487;28;19928;-74
2022/07/02 00:49:33;;;;;;;;;;;28.90;87.50;;;;;;5093241;28;19936;-74
2022/07/02 00:52:01;;;;;;;;;;;28.80;87.70;;;;;;5076543;28;19928;-74
2022/07/02 00:54:28;;;;;;;;;;;28.80;88.00;;;;;;5111778;28;20320;-74
2022/07/02 00:56:56;;;;;;;;;;;28.80;87.90;;;;;;5111690;28;19928;-74
2022/07/02 00:59:24;;;;;;;;;;;28.90;87.90;;;;;;5093408;28;20403;-73
2022/07/02 01:01:52;;;;;;;;;;;29.00;87.90;;;;;;5110155;28;19928;-74
2022/07/02 01:04:19;;;;;;;;;;;29.00;87.90;;;;;;5102163;28;19930;-74
2022/07/02 01:06:48;;;;;;;;;;;29.00;88.00;;;;;;5089981;28;20379;-74
2022/07/02 01:12:03;;;;;;;;;;;29.00;88.00;;;;;;5089792;28;20563;-74
2022/07/02 01:14:30;;;;;;;;;;;28.90;88.10;;;;;;5106712;28;19924;-74
2022/07/02 01:16:58;;;;;;;;;;;28.80;88.70;;;;;;5077709;28;19928;-74
2022/07/02 01:19:25;;;;;;;;;;;28.80;89.20;;;;;;5070607;28;19936;-74
2022/07/02 01:22:09;;;;;;;;;;;28.80;89.50;;;;;;5070701;28;20437;-74
2022/07/02 01:24:37;;;;;;;;;;;28.80;89.80;;;;;;5068990;28;19998;-74
2022/07/02 01:27:04;;;;;;;;;;;28.80;89.90;;;;;;5052969;28;19972;-74
2022/07/02 01:29:32;;;;;;;;;;;28.50;90.10;;;;;;5053016;28;19928;-74
2022/07/02 01:31:59;;;;;;;;;;;28.50;90.30;;;;;;5085818;28;19950;-74
2022/07/02 01:34:27;;;;;;;;;;;28.50;90.50;;;;;;5069905;28;19928;-74
2022/07/02 01:36:54;;;;;;;;;;;28.40;90.60;;;;;;5069309;28;19967;-74
2022/07/02 01:39:25;;;;;;;;;;;28.40;90.70;;;;;;5071977;28;19929;-74
2022/07/02 01:41:52;;;;;;;;;;;28.30;90.80;;;;;;5073286;28;19939;-74
2022/07/02 01:44:20;;;;;;;;;;;28.30;90.60;;;;;;5089212;28;20617;-74
2022/07/02 01:46:47;;;;;;;;;;;28.40;90.50;;;;;;5055380;28;20263;-74
2022/07/02 01:49:14;;;;;;;;;;;28.40;90.50;;;;;;5056510;28;19931;-74
2022/07/02 01:51:42;;;;;;;;;;;28.60;90.60;;;;;;5073121;28;19933;-74
2022/07/02 01:54:09;;;;;;;;;;;28.60;90.30;;;;;;5089221;28;20442;-74
2022/07/02 01:56:37;;;;;;;;;;;28.70;90.40;;;;;;5056209;28;19967;-74
2022/07/02 01:59:04;;;;;;;;;;;28.60;90.20;;;;;;5039585;28;20027;-74
2022/07/02 02:01:32;;;;;;;;;;;28.50;90.00;;;;;;5063802;28;19928;-74
2022/07/02 02:03:59;;;;;;;;;;;28.50;90.30;;;;;;5089744;28;19928;-74
2022/07/02 02:06:27;;;;;;;;;;;28.50;90.20;;;;;;5074163;28;19928;-74
2022/07/02 02:08:55;;;;;;;;;;;28.50;90.10;;;;;;5072751;28;19928;-74
2022/07/02 02:11:22;;;;;;;;;;;28.50;90.10;;;;;;5073735;28;20294;-74
2022/07/02 02:13:49;;;;;;;;;;;28.50;90.10;;;;;;5072622;28;19935;-74
2022/07/02 02:16:17;;;;;;;;;;;28.50;90.30;;;;;;5078686;28;19934;-74
2022/07/02 02:18:44;;;;;;;;;;;28.60;90.50;;;;;;5092883;28;19978;-74
2022/07/02 02:21:11;;;;;;;;;;;28.60;90.50;;;;;;5093897;28;20019;-74
2022/07/02 02:23:39;;;;;;;;;;;28.60;90.30;;;;;;5092851;28;20023;-74
2022/07/02 02:26:06;;;;;;;;;;;28.60;90.10;;;;;;5092599;28;19971;-74
2022/07/02 02:28:34;;;;;;;;;;;28.60;90.00;;;;;;5093528;28;20017;-74
2022/07/02 02:31:01;;;;;;;;;;;28.60;89.80;;;;;;5092983;28;20019;-74
2022/07/02 02:33:28;;;;;;;;;;;28.60;89.80;;;;;;5092012;28;19928;-74
2022/07/02 02:35:56;;;;;;;;;;;28.60;89.20;;;;;;5092586;28;20015;-74
2022/07/02 02:38:24;;;;;;;;;;;28.50;88.50;;;;;;5075623;28;20684;-74
2022/07/02 02:40:51;;;;;;;;;;;28.50;88.50;;;;;;5109522;28;19928;-74
2022/07/02 02:43:19;;;;;;;;;;;28.50;88.40;;;;;;5092520;28;20308;-74
2022/07/02 02:45:47;;;;;;;;;;;28.40;87.80;;;;;;5093501;28;19925;-74
2022/07/02 02:48:15;;;;;;;;;;;28.40;86.40;;;;;;5093527;28;19928;-74
2022/07/02 02:50:43;;;;;;;;;;;28.50;86.50;;;;;;5058752;28;19963;-74
2022/07/02 02:53:10;;;;;;;;;;;28.40;86.00;;;;;;5093059;28;19928;-74
2022/07/02 02:55:37;;;;;;;;;;;28.40;86.10;;;;;;5092282;28;20025;-74
2022/07/02 02:58:05;;;;;;;;;;;28.50;86.10;;;;;;5092006;28;19928;-74
2022/07/02 03:00:32;;;;;;;;;;;28.50;86.70;;;;;;5098164;28;20431;-74
2022/07/02 03:03:00;;;;;;;;;;;28.40;88.10;;;;;;5089509;28;20373;-74
2022/07/02 03:05:27;;;;;;;;;;;28.30;88.00;;;;;;5111982;28;20301;-74
2022/07/02 03:07:54;;;;;;;;;;;28.20;87.90;;;;;;5095547;28;19932;-74
2022/07/02 03:10:22;;;;;;;;;;;28.20;87.80;;;;;;5112028;28;19928;-74
2022/07/02 03:12:49;;;;;;;;;;;28.20;87.90;;;;;;5113272;28;19935;-74
2022/07/02 03:15:17;;;;;;;;;;;28.30;88.00;;;;;;5095425;28;19928;-74
2022/07/02 03:17:44;;;;;;;;;;;28.30;88.00;;;;;;5130426;27;20293;-74
2022/07/02 03:20:11;;;;;;;;;;;28.30;88.30;;;;;;5115336;27;20376;-74
2022/07/02 03:22:39;;;;;;;;;;;28.30;88.20;;;;;;5098124;27;19988;-74
2022/07/02 03:25:07;;;;;;;;;;;28.30;88.40;;;;;;5080319;27;20270;-74
2022/07/02 03:27:35;;;;;;;;;;;28.30;88.50;;;;;;5115135;27;19927;-74
2022/07/02 03:30:02;;;;;;;;;;;28.20;88.50;;;;;;5115408;27;19931;-74
2022/07/02 03:32:31;;;;;;;;;;;28.20;88.60;;;;;;5115221;27;19987;-74
2022/07/02 03:34:58;;;;;;;;;;;28.30;88.50;;;;;;5096934;27;19929;-74
2022/07/02 03:37:28;;;;;;;;;;;28.30;88.40;;;;;;5097996;27;19927;-74
2022/07/02 03:39:55;;;;;;;;;;;28.30;88.40;;;;;;5114724;27;20381;-74
2022/07/02 03:42:23;;;;;;;;;;;28.30;88.50;;;;;;5114188;27;20030;-74
2022/07/02 03:44:50;;;;;;;;;;;28.30;88.40;;;;;;5114923;27;19923;-74
2022/07/02 03:47:17;;;;;;;;;;;28.40;88.40;;;;;;5114770;27;19928;-74
2022/07/02 03:49:45;;;;;;;;;;;28.40;88.30;;;;;;5133063;27;20017;-74
2022/07/02 03:52:12;;;;;;;;;;;28.40;88.20;;;;;;5130021;27;19927;-74
2022/07/02 03:54:40;;;;;;;;;;;28.40;88.10;;;;;;5098122;27;19976;-74
2022/07/02 03:57:07;;;;;;;;;;;28.40;88.20;;;;;;5114583;27;19931;-75
2022/07/02 03:59:35;;;;;;;;;;;28.40;88.60;;;;;;5115121;27;19924;-74
2022/07/02 04:02:02;;;;;;;;;;;28.50;88.00;;;;;;5132128;27;19931;-74
2022/07/02 04:04:30;;;;;;;;;;;28.50;88.00;;;;;;5080245;27;19928;-74
2022/07/02 04:06:57;;;;;;;;;;;28.60;87.80;;;;;;5081158;27;20644;-74
2022/07/02 04:09:24;;;;;;;;;;;28.60;87.40;;;;;;5132552;27;19927;-74
2022/07/02 04:11:52;;;;;;;;;;;28.70;87.50;;;;;;5133023;27;19927;-74
2022/07/02 04:14:19;;;;;;;;;;;28.80;87.80;;;;;;5081400;27;20622;-74
2022/07/02 04:16:47;;;;;;;;;;;28.90;87.40;;;;;;5097213;27;20348;-74
2022/07/02 04:19:14;;;;;;;;;;;28.90;87.40;;;;;;5114063;27;19924;-74
2022/07/02 04:21:42;;;;;;;;;;;29.00;87.40;;;;;;5114255;27;19930;-74
2022/07/02 04:24:09;;;;;;;;;;;29.00;87.20;;;;;;5097785;27;19927;-74
2022/07/02 04:26:36;;;;;;;;;;;28.90;87.50;;;;;;5132694;27;19927;-74
2022/07/02 04:29:03;;;;;;;;;;;29.00;87.70;;;;;;5114302;27;19934;-74
2022/07/02 04:31:31;;;;;;;;;;;29.00;87.60;;;;;;5114292;27;19931;-74
2022/07/02 04:33:58;;;;;;;;;;;29.00;87.70;;;;;;5114076;27;19923;-74
2022/07/02 04:36:26;;;;;;;;;;;29.10;87.70;;;;;;5096837;27;19927;-74
2022/07/02 04:38:53;;;;;;;;;;;29.20;87.50;;;;;;5113944;27;19980;-74
2022/07/02 04:41:20;;;;;;;;;;;29.20;87.50;;;;;;5113944;27;19927;-74
2022/07/02 04:43:48;;;;;;;;;;;29.20;87.60;;;;;;5097020;27;19927;-74
2022/07/02 04:46:15;;;;;;;;;;;29.20;87.50;;;;;;5079902;27;19927;-74
2022/07/02 04:48:42;;;;;;;;;;;29.20;87.60;;;;;;5096702;27;20387;-74
2022/07/02 04:51:10;;;;;;;;;;;29.40;87.60;;;;;;5112127;27;19924;-74
2022/07/02 04:53:37;;;;;;;;;;;29.40;87.40;;;;;;5113779;27;19949;-74
2022/07/02 04:56:05;;;;;;;;;;;29.60;87.60;;;;;;5114032;27;19923;-74
2022/07/02 04:58:32;;;;;;;;;;;29.60;87.30;;;;;;5113765;27;19951;-74
2022/07/02 05:01:00;;;;;;;;;;;29.80;87.20;;;;;;5097002;27;19927;-74
2022/07/02 05:03:27;;;;;;;;;;;29.80;87.10;;;;;;5113566;27;19927;-74
2022/07/02 05:05:55;;;;;;;;;;;30.00;87.10;;;;;;5131481;27;19988;-74
2022/07/02 05:08:26;;;;;;;;;;;30.00;86.80;;;;;;5130759;27;19927;-74
2022/07/02 05:10:53;;;;;;;;;;;30.20;86.80;;;;;;5132268;27;19981;-74
2022/07/02 05:13:21;;;;;;;;;;;30.40;86.60;;;;;;5096217;27;19930;-74
2022/07/02 05:15:49;;;;;;;;;;;30.60;86.40;;;;;;5079970;27;20540;-74
2022/07/02 05:18:17;;;;;;;;;;;30.70;86.00;;;;;;5132036;27;19928;-74
2022/07/02 05:20:44;;;;;;;;;;;30.90;85.70;;;;;;5113284;28;19927;-74
2022/07/02 05:23:11;;;;;;;;;;;31.10;85.40;;;;;;5095175;28;19970;-74
2022/07/02 05:25:39;;;;;;;;;;;31.30;84.80;;;;;;5131583;28;19927;-74
2022/07/02 05:28:06;;;;;;;;;;;31.50;83.70;;;;;;5113464;28;20022;-74
2022/07/02 05:30:34;;;;;;;;;;;31.60;83.50;;;;;;5130384;27;20376;-74
2022/07/02 05:33:01;;;;;;;;;;;31.60;83.40;;;;;;5096735;28;19927;-74
2022/07/02 05:35:29;;;;;;;;;;;31.70;82.90;;;;;;5095060;28;20014;-75
2022/07/02 05:37:56;;;;;;;;;;;31.80;82.70;;;;;;5089098;28;19927;-74
2022/07/02 05:40:23;;;;;;;;;;;31.90;82.30;;;;;;5093105;28;20026;-74
2022/07/02 05:42:51;;;;;;;;;;;32.00;81.70;;;;;;5093062;28;19924;-74
2022/07/02 05:45:18;;;;;;;;;;;32.10;81.60;;;;;;5059506;28;20452;-74
2022/07/02 05:47:46;;;;;;;;;;;32.10;81.00;;;;;;5110999;28;20343;-74
2022/07/02 05:50:13;;;;;;;;;;;32.10;80.40;;;;;;5110867;28;19931;-74
2022/07/02 05:52:40;;;;;;;;;;;32.10;80.30;;;;;;5075875;28;20472;-74
2022/07/02 05:55:08;;;;;;;;;;;32.10;79.60;;;;;;5092626;28;20014;-74
2022/07/02 05:57:36;;;;;;;;;;;32.30;79.30;;;;;;5110748;28;19928;-74
2022/07/02 06:00:04;;;;;;;;;;;32.50;78.50;;;;;;5075861;28;19963;-74
2022/07/02 06:02:32;;;;;;;;;;;32.60;78.10;;;;;;5092631;28;19924;-74
2022/07/02 06:07:38;;;;;;;;;;;32.80;77.40;;;;;;5093028;28;20396;-75
2022/07/02 06:07:47;;;;;;;;;;;33.00;77.10;;;;;;5110679;28;19935;-74
2022/07/02 06:10:23;;;;;;;;;;;33.10;75.90;;;;;;5092758;28;19935;-74
2022/07/02 06:12:51;;;;;;;;;;;33.20;74.90;;;;;;5092614;28;19935;-75
2022/07/02 06:15:19;;;;;;;;;;;33.30;73.60;;;;;;5075453;28;20301;-74
2022/07/02 06:17:47;;;;;;;;;;;33.50;73.20;;;;;;5076014;28;19927;-74
2022/07/02 06:20:14;;;;;;;;;;;33.70;71.80;;;;;;5109617;28;20393;-74
2022/07/02 06:22:44;;;;;;;;;;;33.90;71.70;;;;;;5092269;28;19928;-74
2022/07/02 06:25:12;;;;;;;;;;;34.00;71.30;;;;;;5094850;28;20446;-74
2022/07/02 06:27:39;;;;;;;;;;;34.10;70.70;;;;;;5071881;28;19992;-75
2022/07/02 06:30:13;;;;;;;;;;;34.20;68.10;;;;;;5122569;27;20006;-75
2022/07/02 06:32:44;;;;;;;;;;;34.20;67.90;;;;;;5112676;28;19977;-75
2022/07/02 06:35:12;;;;;;;;;;;34.30;68.30;;;;;;5103921;27;19981;-74
2022/07/02 06:37:39;;;;;;;;;;;34.50;66.70;;;;;;5102210;27;20403;-75
2022/07/02 06:40:07;;;;;;;;;;;34.60;66.60;;;;;;5100229;28;19927;-75
2022/07/02 06:42:35;;;;;;;;;;;34.60;65.40;;;;;;5113947;28;20065;-74
2022/07/02 06:45:05;;;;;;;;;;;34.60;65.50;;;;;;5095185;28;19979;-74
2022/07/02 06:47:32;;;;;;;;;;;34.70;65.70;;;;;;5096410;28;20491;-74
2022/07/02 06:50:00;;;;;;;;;;;34.80;65.20;;;;;;5079211;28;19928;-75
2022/07/02 06:52:29;;;;;;;;;;;34.90;65.10;;;;;;5081027;27;19961;-75
2022/07/02 06:54:57;;;;;;;;;;;35.00;63.50;;;;;;5087535;28;20014;-74
2022/07/02 06:57:25;;;;;;;;;;;35.20;62.50;;;;;;5078445;28;19928;-75
2022/07/02 06:59:53;;;;;;;;;;;35.40;62.10;;;;;;5065768;27;20487;-74
2022/07/02 07:02:21;;;;;;;;;;;35.50;61.40;;;;;;5104317;27;19931;-74
2022/07/02 07:04:49;;;;;;;;;;;35.50;61.00;;;;;;5081948;27;19934;-74
2022/07/02 07:07:17;;;;;;;;;;;35.50;60.70;;;;;;5095772;27;20414;-74
2022/07/02 07:09:44;;;;;;;;;;;35.40;58.90;;;;;;5094707;28;19932;-75
2022/07/02 07:12:12;;;;;;;;;;;35.40;58.80;;;;;;5081008;28;19924;-75
2022/07/02 07:14:40;;;;;;;;;;;35.60;59.00;;;;;;5093286;27;19927;-76
2022/07/02 07:17:07;;;;;;;;;;;35.80;58.80;;;;;;5109103;27;19927;-75
2022/07/02 07:19:35;;;;;;;;;;;36.00;58.60;;;;;;5103624;27;19935;-74
2022/07/02 07:22:03;;;;;;;;;;;36.20;58.50;;;;;;5088849;27;19924;-74
2022/07/02 07:24:30;;;;;;;;;;;36.40;58.80;;;;;;5095463;27;19928;-74
2022/07/02 07:26:58;;;;;;;;;;;36.30;58.20;;;;;;5102197;27;19927;-74
2022/07/02 07:29:26;;;;;;;;;;;36.20;58.20;;;;;;5105341;27;19977;-75
2022/07/02 07:31:54;;;;;;;;;;;36.30;58.20;;;;;;5108003;28;19932;-75
2022/07/02 07:34:22;;;;;;;;;;;36.40;58.50;;;;;;5084690;28;19932;-74
2022/07/02 07:36:51;;;;;;;;;;;36.40;58.50;;;;;;5129924;27;19927;-73
2022/07/02 07:39:19;;;;;;;;;;;36.40;58.70;;;;;;5102843;28;19924;-74
2022/07/02 07:41:47;;;;;;;;;;;36.20;58.50;;;;;;5100178;28;19927;-74
2022/07/02 07:44:14;;;;;;;;;;;36.30;58.70;;;;;;5094212;28;20450;-75
2022/07/02 07:46:42;;;;;;;;;;;36.40;59.30;;;;;;5120570;27;19934;-75
2022/07/02 07:49:11;;;;;;;;;;;36.50;58.90;;;;;;5119582;27;19931;-75
2022/07/02 07:51:38;;;;;;;;;;;36.70;59.20;;;;;;5115160;27;19928;-75
2022/07/02 07:54:06;;;;;;;;;;;36.70;58.80;;;;;;5112256;27;19935;-75
2022/07/02 07:56:35;;;;;;;;;;;36.60;58.60;;;;;;5087598;27;19938;-75
2022/07/02 07:59:02;;;;;;;;;;;36.60;58.90;;;;;;5097942;27;19927;-75
2022/07/02 08:01:30;;;;;;;;;;;36.70;58.90;;;;;;5080120;28;19934;-75
2022/07/02 08:03:57;;;;;;;;;;;36.80;59.00;;;;;;5064289;27;19929;-75
2022/07/02 08:06:25;;;;;;;;;;;36.90;59.30;;;;;;5103168;28;19934;-75
2022/07/02 08:08:53;;;;;;;;;;;36.70;59.00;;;;;;5106365;28;19928;-75
2022/07/02 08:11:20;;;;;;;;;;;36.40;58.60;;;;;;5106186;28;20346;-75
2022/07/02 08:13:48;;;;;;;;;;;36.50;59.10;;;;;;5094014;28;20366;-75
2022/07/02 08:16:15;;;;;;;;;;;36.60;58.90;;;;;;5097638;28;19935;-75
2022/07/02 08:18:43;;;;;;;;;;;36.80;59.10;;;;;;5104962;27;20288;-75
2022/07/02 08:21:11;;;;;;;;;;;37.10;59.20;;;;;;5082116;28;20008;-75
2022/07/02 08:23:38;;;;;;;;;;;37.20;59.80;;;;;;5093903;28;19924;-75
2022/07/02 08:26:06;;;;;;;;;;;37.40;58.90;;;;;;5121499;27;19990;-75
2022/07/02 08:28:35;;;;;;;;;;;37.30;58.90;;;;;;5101933;28;19946;-75
2022/07/02 08:31:02;;;;;;;;;;;37.30;58.80;;;;;;5101867;28;19996;-76
2022/07/02 08:33:30;;;;;;;;;;;37.30;59.00;;;;;;5076653;28;19923;-75
2022/07/02 08:35:59;;;;;;;;;;;37.20;58.60;;;;;;5114641;27;19927;-75
2022/07/02 08:38:26;;;;;;;;;;;37.10;58.80;;;;;;5094838;27;20046;-75
2022/07/02 08:40:54;;;;;;;;;;;37.10;58.70;;;;;;5094388;28;19967;-75
2022/07/02 08:43:24;;;;;;;;;;;37.30;59.00;;;;;;5117625;27;19953;-75
2022/07/02 08:45:52;;;;;;;;;;;37.20;58.50;;;;;;5094769;28;19927;-75
2022/07/02 08:48:20;;;;;;;;;;;37.40;58.50;;;;;;5099467;27;19927;-75
2022/07/02 08:50:49;;;;;;;;;;;37.60;58.40;;;;;;5088023;28;20297;-75
2022/07/02 08:53:17;;;;;;;;;;;37.70;58.10;;;;;;5110797;28;19928;-75
2022/07/02 08:55:45;;;;;;;;;;;37.50;58.10;;;;;;5108171;27;19976;-75
2022/07/02 08:58:14;;;;;;;;;;;37.30;58.60;;;;;;5103246;28;19951;-75
2022/07/02 09:00:42;;;;;;;;;;;37.30;62.60;;;;;;5094090;28;20573;-75
2022/07/02 09:03:11;;;;;;;;;;;37.30;61.60;;;;;;5094913;28;19923;-75
2022/07/02 09:05:39;;;;;;;;;;;37.00;58.60;;;;;;5112867;27;20018;-75
2022/07/02 09:08:07;;;;;;;;;;;37.20;58.80;;;;;;5102705;28;19953;-75
2022/07/02 09:10:35;;;;;;;;;;;37.40;58.60;;;;;;5100745;28;19932;-75
2022/07/02 09:13:03;;;;;;;;;;;37.60;59.00;;;;;;5104477;28;19923;-75
2022/07/02 09:15:31;;;;;;;;;;;37.50;63.20;;;;;;5084917;28;19935;-74
2022/07/02 09:17:58;;;;;;;;;;;37.40;63.60;;;;;;5104857;28;20278;-75
2022/07/02 09:20:26;;;;;;;;;;;37.40;63.20;;;;;;5084435;28;19924;-74
2022/07/02 09:22:53;;;;;;;;;;;37.30;62.60;;;;;;5100243;28;19928;-75
2022/07/02 09:25:23;;;;;;;;;;;37.00;62.30;;;;;;5112997;28;19927;-74
2022/07/02 09:27:58;;;;;;;;;;;36.90;62.80;;;;;;5101945;28;19934;-75
2022/07/02 09:30:28;;;;;;;;;;;36.90;64.20;;;;;;5104142;28;19928;-75
2022/07/02 09:35:41;;;;;;;;;;;36.70;64.70;;;;;;5113598;28;19931;-75
2022/07/02 09:38:10;;;;;;;;;;;36.50;64.60;;;;;;5093625;28;19931;-75
2022/07/02 09:40:50;;;;;;;;;;;36.50;64.00;;;;;;5075932;28;20553;-74
2022/07/02 09:43:25;;;;;;;;;;;36.70;63.60;;;;;;5092699;28;19934;-74
2022/07/02 09:45:53;;;;;;;;;;;36.80;65.20;;;;;;5101201;28;19942;-75
2022/07/02 09:48:20;;;;;;;;;;;36.70;64.80;;;;;;5093366;28;19932;-75
2022/07/02 09:50:48;;;;;;;;;;;36.60;65.50;;;;;;5082845;28;20404;-75
2022/07/02 09:53:15;;;;;;;;;;;36.70;65.40;;;;;;5109966;28;19938;-75
2022/07/02 09:55:47;;;;;;;;;;;36.80;65.40;;;;;;5105409;28;20016;-74
2022/07/02 09:58:22;;;;;;;;;;;36.90;65.30;;;;;;5095871;28;20423;-75
2022/07/02 10:00:49;;;;;;;;;;;36.90;64.80;;;;;;5104948;28;19997;-75
2022/07/02 10:03:17;;;;;;;;;;;37.10;65.20;;;;;;5104233;27;19928;-75
2022/07/02 10:05:45;;;;;;;;;;;37.00;64.40;;;;;;5100966;27;19930;-74
2022/07/02 10:08:13;;;;;;;;;;;37.20;64.60;;;;;;5133423;27;19968;-74
2022/07/02 10:10:41;;;;;;;;;;;37.20;64.10;;;;;;5108703;27;19927;-75
2022/07/02 10:13:13;;;;;;;;;;;37.10;64.40;;;;;;5106456;27;19927;-75
2022/07/02 10:15:52;;;;;;;;;;;37.00;64.30;;;;;;5111390;27;19928;-74
2022/07/02 10:18:20;;;;;;;;;;;37.10;64.20;;;;;;5100443;27;20369;-74
2022/07/02 10:20:48;;;;;;;;;;;37.10;63.90;;;;;;5104416;28;20030;-74
2022/07/02 10:23:15;;;;;;;;;;;37.00;63.80;;;;;;5127596;27;19938;-74
2022/07/02 10:25:43;;;;;;;;;;;37.00;63.90;;;;;;5101484;28;19923;-75
2022/07/02 10:28:10;;;;;;;;;;;37.00;63.80;;;;;;5094080;28;19928;-75
2022/07/02 10:30:38;;;;;;;;;;;36.90;63.80;;;;;;5106885;28;19927;-74
2022/07/02 10:33:21;;;;;;;;;;;37.00;63.90;;;;;;5082067;28;19927;-75
2022/07/02 10:35:49;;;;;;;;;;;36.90;63.50;;;;;;5112075;27;20290;-76
2022/07/02 10:38:34;;;;;;;;;;;36.80;63.50;;;;;;5125748;27;19924;-75
2022/07/02 10:41:02;;;;;;;;;;;36.90;63.70;;;;;;5097321;27;19935;-75
2022/07/02 10:43:32;;;;;;;;;;;36.70;63.70;;;;;;5113076;27;19928;-75
2022/07/02 10:46:05;;;;;;;;;;;36.80;63.90;;;;;;5129635;27;19952;-74
2022/07/02 10:48:34;;;;;;;;;;;36.90;63.80;;;;;;5106174;28;19928;-74
2022/07/02 10:51:02;;;;;;;;;;;36.90;63.80;;;;;;5093737;27;20346;-75
2022/07/02 10:53:30;;;;;;;;;;;36.90;63.60;;;;;;5106893;28;19935;-74
2022/07/02 10:56:04;;;;;;;;;;;37.10;63.60;;;;;;5110230;28;20273;-75
2022/07/02 10:58:36;;;;;;;;;;;37.10;63.60;;;;;;5083440;27;19928;-75
2022/07/02 11:01:23;;;;;;;;;;;37.20;63.70;;;;;;5126136;27;19924;-75
2022/07/02 11:03:56;;;;;;;;;;;37.20;63.50;;;;;;5105328;28;20287;-75
2022/07/02 11:06:28;;;;;;;;;;;37.10;63.30;;;;;;5096307;27;19924;-75
2022/07/02 11:08:59;;;;;;;;;;;37.10;63.30;;;;;;5091951;28;20032;-75
2022/07/02 11:11:30;;;;;;;;;;;37.20;63.80;;;;;;5097650;28;20389;-75
2022/07/02 11:14:05;;;;;;;;;;;37.30;63.50;;;;;;5104948;27;20003;-75
2022/07/02 11:16:40;;;;;;;;;;;37.10;63.30;;;;;;5117083;27;19950;-75
2022/07/02 11:19:15;;;;;;;;;;;37.10;63.10;;;;;;5083941;28;19928;-75
2022/07/02 11:21:43;;;;;;;;;;;37.00;63.40;;;;;;5104593;27;19978;-75
2022/07/02 11:24:10;;;;;;;;;;;37.00;63.30;;;;;;5099552;27;19946;-75
2022/07/02 11:26:42;;;;;;;;;;;37.00;63.40;;;;;;5114692;27;20662;-75
2022/07/02 11:29:10;;;;;;;;;;;37.00;63.40;;;;;;5078923;28;19985;-75
2022/07/02 11:31:39;;;;;;;;;;;37.00;63.10;;;;;;5092610;28;19927;-75
2022/07/02 11:34:06;;;;;;;;;;;36.90;63.20;;;;;;5080430;27;19984;-76
2022/07/02 11:36:37;;;;;;;;;;;36.90;63.80;;;;;;5113943;27;20012;-75
2022/07/02 11:39:13;;;;;;;;;;;37.00;62.90;;;;;;5091974;28;19931;-74
2022/07/02 11:41:41;;;;;;;;;;;37.00;62.60;;;;;;5089333;27;19973;-75
2022/07/02 11:44:14;;;;;;;;;;;37.00;62.30;;;;;;5075931;28;19927;-74
2022/07/02 11:46:42;;;;;;;;;;;37.00;62.20;;;;;;5101804;28;19928;-75
2022/07/02 11:49:15;;;;;;;;;;;37.10;62.60;;;;;;5111590;27;20691;-75
2022/07/02 11:51:44;;;;;;;;;;;37.10;62.50;;;;;;5075405;28;19963;-75
2022/07/02 11:54:13;;;;;;;;;;;37.00;62.20;;;;;;5059523;28;19974;-75
2022/07/02 11:56:41;;;;;;;;;;;37.10;62.30;;;;;;5110812;27;19928;-74
2022/07/02 11:59:12;;;;;;;;;;;37.10;62.10;;;;;;5113877;27;20262;-74
2022/07/02 12:01:40;;;;;;;;;;;37.20;61.90;;;;;;5097762;28;19937;-75
2022/07/02 12:04:12;;;;;;;;;;;37.10;61.80;;;;;;5086452;27;19924;-75
2022/07/02 12:06:41;;;;;;;;;;;37.10;61.60;;;;;;5090967;27;20267;-75
2022/07/02 12:09:13;;;;;;;;;;;37.10;61.60;;;;;;5091619;27;19955;-75
2022/07/02 12:11:42;;;;;;;;;;;37.00;61.90;;;;;;5115423;27;20019;-75
2022/07/02 12:14:11;;;;;;;;;;;37.00;61.80;;;;;;5121647;27;19931;-77
2022/07/02 12:16:39;;;;;;;;;;;37.10;62.20;;;;;;5070547;27;19931;-76
2022/07/02 12:19:08;;;;;;;;;;;37.10;61.70;;;;;;5101356;27;19970;-77
2022/07/02 12:21:42;;;;;;;;;;;37.30;61.90;;;;;;5099604;28;20732;-77
2022/07/02 12:24:22;;;;;;;;;;;37.00;61.50;;;;;;5092086;28;19930;-76
2022/07/02 12:26:58;;;;;;;;;;;37.00;61.70;;;;;;5099119;28;20369;-76
2022/07/02 12:32:13;;;;;;;;;;;36.90;61.60;;;;;;5093595;27;19931;-75
2022/07/02 12:34:41;;;;;;;;;;;36.90;61.50;;;;;;5066052;28;19928;-77
2022/07/02 12:37:21;;;;;;;;;;;36.90;61.50;;;;;;5104633;27;19932;-76
2022/07/02 12:39:55;;;;;;;;;;;36.90;61.20;;;;;;5084433;27;19932;-77
2022/07/02 12:42:23;;;;;;;;;;;37.00;61.40;;;;;;5113612;27;19924;-77
2022/07/02 12:44:51;;;;;;;;;;;37.00;61.30;;;;;;5113560;27;19996;-76
2022/07/02 12:47:30;;;;;;;;;;;37.10;61.40;;;;;;5116127;27;19923;-76
2022/07/02 12:49:57;;;;;;;;;;;37.00;61.10;;;;;;5099219;27;19986;-76
2022/07/02 12:52:27;;;;;;;;;;;37.00;61.00;;;;;;5121337;27;19923;-76
2022/07/02 12:54:54;;;;;;;;;;;37.00;60.90;;;;;;5092219;28;19923;-75
2022/07/02 12:57:22;;;;;;;;;;;37.00;60.50;;;;;;5117143;27;19939;-76
2022/07/02 12:59:52;;;;;;;;;;;37.00;60.60;;;;;;5095612;27;19923;-76
2022/07/02 13:02:24;;;;;;;;;;;36.90;60.20;;;;;;5066197;28;19934;-76
2022/07/02 13:04:52;;;;;;;;;;;36.90;60.40;;;;;;5112763;27;19978;-76
2022/07/02 13:07:19;;;;;;;;;;;36.90;60.30;;;;;;5121640;27;20261;-75
2022/07/02 13:09:47;;;;;;;;;;;36.70;60.40;;;;;;5095527;28;19928;-76
2022/07/02 13:12:15;;;;;;;;;;;36.70;61.00;;;;;;5094934;27;20065;-75
2022/07/02 13:14:44;;;;;;;;;;;36.80;61.10;;;;;;5098764;28;20389;-76
2022/07/02 13:17:13;;;;;;;;;;;36.70;61.10;;;;;;5088901;27;19930;-75
2022/07/02 13:20:01;;;;;;;;;;;36.60;60.90;;;;;;5110101;28;19928;-77
2022/07/02 13:22:30;;;;;;;;;;;36.70;61.50;;;;;;5117649;27;19928;-76
2022/07/02 13:24:58;;;;;;;;;;;36.70;61.50;;;;;;5094734;28;19927;-77
2022/07/02 13:27:26;;;;;;;;;;;36.80;61.10;;;;;;5106885;28;19932;-77
2022/07/02 13:29:54;;;;;;;;;;;36.70;61.30;;;;;;5098716;28;20022;-76
2022/07/02 13:32:22;;;;;;;;;;;36.50;61.30;;;;;;5090422;28;19930;-77
2022/07/02 13:34:49;;;;;;;;;;;36.50;61.50;;;;;;5115273;27;19927;-76
2022/07/02 13:37:17;;;;;;;;;;;36.50;61.70;;;;;;5120458;27;19938;-76
2022/07/02 13:39:44;;;;;;;;;;;36.40;61.60;;;;;;5116154;27;20027;-75
2022/07/02 13:42:12;;;;;;;;;;;36.30;61.80;;;;;;5092800;27;20390;-77
2022/07/02 13:44:39;;;;;;;;;;;36.30;62.40;;;;;;5107649;27;19959;-76
2022/07/02 13:47:07;;;;;;;;;;;36.30;62.60;;;;;;5094728;27;19942;-76
2022/07/02 13:49:35;;;;;;;;;;;36.30;62.80;;;;;;5081952;27;20005;-75
2022/07/02 13:52:02;;;;;;;;;;;36.20;63.20;;;;;;5124014;27;19924;-75
2022/07/02 13:54:30;;;;;;;;;;;36.00;63.70;;;;;;5115934;27;19980;-75
2022/07/02 13:56:57;;;;;;;;;;;35.80;63.90;;;;;;5104643;27;19947;-75
2022/07/02 13:59:25;;;;;;;;;;;35.80;63.70;;;;;;5123966;27;20409;-74
2022/07/02 14:01:53;;;;;;;;;;;35.90;64.30;;;;;;5128215;27;19937;-76
2022/07/02 14:04:20;;;;;;;;;;;35.90;64.50;;;;;;5095430;27;19931;-75
2022/07/02 14:06:48;;;;;;;;;;;35.80;64.30;;;;;;5113203;27;19939;-75
2022/07/02 14:09:15;;;;;;;;;;;35.80;64.40;;;;;;5095114;28;19923;-75
2022/07/02 14:11:43;;;;;;;;;;;35.80;64.40;;;;;;5103504;27;20018;-75
2022/07/02 14:14:10;;;;;;;;;;;35.80;64.50;;;;;;5113204;27;19931;-75
2022/07/02 14:16:38;;;;;;;;;;;35.90;64.70;;;;;;5097013;28;20385;-75
2022/07/02 14:19:05;;;;;;;;;;;35.90;64.70;;;;;;5111796;28;20010;-75
2022/07/02 14:21:32;;;;;;;;;;;35.90;64.90;;;;;;5087136;28;19928;-75
2022/07/02 14:24:00;;;;;;;;;;;35.90;65.50;;;;;;5104358;28;19928;-75
2022/07/02 14:26:27;;;;;;;;;;;35.80;66.50;;;;;;5105076;28;19999;-75
2022/07/02 14:28:55;;;;;;;;;;;35.70;67.00;;;;;;5104819;28;20340;-74
2022/07/02 14:31:22;;;;;;;;;;;35.60;67.40;;;;;;5108237;28;19924;-75
2022/07/02 14:33:50;;;;;;;;;;;35.60;67.20;;;;;;5106942;28;20015;-75